createdAt,value
2019-01-15T00:00:19.462Z,0
2019-01-15T00:00:59.991Z,0
2019-01-15T00:01:40.513Z,0
2019-01-15T00:02:21.039Z,0
2019-01-15T00:03:01.572Z,0
2019-01-15T00:03:42.089Z,0
2019-01-15T00:04:22.610Z,0
2019-01-15T00:05:03.147Z,0
2019-01-15T00:05:43.686Z,0
2019-01-15T00:06:24.217Z,0
2019-01-15T00:07:04.745Z,0
2019-01-15T00:07:45.269Z,0
2019-01-15T00:08:25.796Z,0
2019-01-15T00:09:06.325Z,0
2019-01-15T00:09:46.851Z,0
2019-01-15T00:10:27.387Z,0
2019-01-15T00:11:07.919Z,0
2019-01-15T00:11:48.449Z,0
2019-01-15T00:12:28.985Z,0
2019-01-15T00:13:09.515Z,0
2019-01-15T00:13:50.041Z,0
2019-01-15T00:14:30.579Z,0
2019-01-15T00:15:11.103Z,0
2019-01-15T00:15:51.645Z,0
2019-01-15T00:16:32.172Z,0
2019-01-15T00:17:12.721Z,0
2019-01-15T00:17:53.317Z,0
2019-01-15T00:18:33.806Z,0
2019-01-15T00:19:14.348Z,0
2019-01-15T00:19:54.881Z,0
2019-01-15T00:20:35.401Z,0
2019-01-15T00:21:15.936Z,0
2019-01-15T00:21:56.474Z,0
2019-01-15T00:22:36.993Z,0
2019-01-15T00:23:17.515Z,0
2019-01-15T00:23:58.038Z,0
2019-01-15T00:24:38.576Z,0
2019-01-15T00:25:19.101Z,0
2019-01-15T00:25:59.645Z,0
2019-01-15T00:26:40.178Z,0
2019-01-15T00:27:20.695Z,0
2019-01-15T00:28:01.232Z,0
2019-01-15T00:28:41.759Z,0
2019-01-15T00:29:22.296Z,0
2019-01-15T00:30:02.829Z,0
2019-01-15T00:30:43.359Z,0
2019-01-15T00:31:23.876Z,0
2019-01-15T00:32:04.404Z,0
2019-01-15T00:32:44.942Z,0
2019-01-15T00:33:25.522Z,0
2019-01-15T00:34:06.004Z,0
2019-01-15T00:34:46.529Z,0
2019-01-15T00:35:34.019Z,0
2019-01-15T00:36:14.543Z,0
2019-01-15T00:36:55.063Z,0
2019-01-15T00:37:35.601Z,0
2019-01-15T00:38:16.135Z,0
2019-01-15T00:38:56.656Z,0
2019-01-15T00:39:37.193Z,0
2019-01-15T00:40:17.725Z,0
2019-01-15T00:40:58.252Z,0
2019-01-15T00:41:38.783Z,0
2019-01-15T00:42:19.324Z,0
2019-01-15T00:42:59.848Z,0
2019-01-15T00:43:40.372Z,0
2019-01-15T00:44:20.906Z,0
2019-01-15T00:45:01.433Z,0
2019-01-15T00:45:41.965Z,0
2019-01-15T00:46:22.488Z,0
2019-01-15T00:47:03.026Z,0
2019-01-15T00:47:43.561Z,0
2019-01-15T00:48:24.079Z,0
2019-01-15T00:49:04.621Z,0
2019-01-15T00:49:45.145Z,0
2019-01-15T00:50:25.673Z,0
2019-01-15T00:51:06.200Z,0
2019-01-15T00:51:46.733Z,0
2019-01-15T00:52:27.271Z,0
2019-01-15T00:53:07.818Z,0
2019-01-15T00:53:48.351Z,0
2019-01-15T00:54:28.877Z,0
2019-01-15T00:55:10.191Z,0
2019-01-15T00:55:50.723Z,0
2019-01-15T00:56:31.254Z,0
2019-01-15T00:57:11.789Z,0
2019-01-15T00:57:52.317Z,0
2019-01-15T00:58:32.844Z,0
2019-01-15T00:59:13.374Z,0
2019-01-15T00:59:53.910Z,0
2019-01-15T01:00:34.439Z,0
2019-01-15T01:01:14.976Z,0
2019-01-15T01:01:55.506Z,0
2019-01-15T01:02:36.034Z,0
2019-01-15T01:03:16.571Z,0
2019-01-15T01:03:57.109Z,0
2019-01-15T01:04:37.647Z,0
2019-01-15T01:05:18.183Z,0
2019-01-15T01:05:58.721Z,0
2019-01-15T01:06:39.244Z,0
2019-01-15T01:07:19.760Z,0
2019-01-15T01:08:00.285Z,0
2019-01-15T01:08:40.812Z,0
2019-01-15T01:09:21.358Z,0
2019-01-15T01:10:01.894Z,0
2019-01-15T01:10:42.439Z,0
2019-01-15T01:11:22.971Z,0
2019-01-15T01:12:03.508Z,0
2019-01-15T01:12:44.032Z,0
2019-01-15T01:13:24.558Z,0
2019-01-15T01:14:05.085Z,0
2019-01-15T01:14:45.622Z,0
2019-01-15T01:15:26.141Z,0
2019-01-15T01:16:06.676Z,0
2019-01-15T01:16:47.212Z,0
2019-01-15T01:17:27.746Z,0
2019-01-15T01:18:08.277Z,0
2019-01-15T01:18:48.812Z,0
2019-01-15T01:19:29.343Z,0
2019-01-15T01:20:09.873Z,0
2019-01-15T01:20:50.401Z,0
2019-01-15T01:21:30.939Z,0
2019-01-15T01:22:11.457Z,0
2019-01-15T01:22:51.994Z,0
2019-01-15T01:23:32.518Z,0
2019-01-15T01:27:01.608Z,0
2019-01-15T01:27:42.157Z,0
2019-01-15T01:28:22.678Z,0
2019-01-15T01:29:03.196Z,0
2019-01-15T01:29:43.717Z,0
2019-01-15T01:30:24.245Z,0
2019-01-15T01:31:04.776Z,0
2019-01-15T01:31:45.305Z,0
2019-01-15T01:32:25.842Z,0
2019-01-15T01:33:06.364Z,0
2019-01-15T01:33:46.892Z,0
2019-01-15T01:34:27.429Z,0
2019-01-15T01:35:07.959Z,0
2019-01-15T01:35:48.493Z,0
2019-01-15T01:36:29.022Z,0
2019-01-15T01:37:09.563Z,0
2019-01-15T01:37:50.100Z,0
2019-01-15T01:38:30.623Z,0
2019-01-15T01:39:11.156Z,0
2019-01-15T01:39:51.689Z,0
2019-01-15T01:40:32.220Z,0
2019-01-15T01:41:12.757Z,0
2019-01-15T01:41:53.280Z,0
2019-01-15T01:42:33.819Z,0
2019-01-15T01:43:14.353Z,0
2019-01-15T01:43:54.875Z,0
2019-01-15T01:44:35.397Z,0
2019-01-15T01:45:15.925Z,0
2019-01-15T01:45:56.463Z,0
2019-01-15T01:46:36.990Z,0
2019-01-15T01:47:17.517Z,0
2019-01-15T01:47:58.048Z,0
2019-01-15T01:48:38.575Z,0
2019-01-15T01:49:19.108Z,0
2019-01-15T01:49:59.639Z,0
2019-01-15T01:50:40.177Z,0
2019-01-15T01:51:20.709Z,0
2019-01-15T01:52:01.255Z,0
2019-01-15T01:52:41.785Z,0
2019-01-15T01:53:22.315Z,0
2019-01-15T01:54:02.860Z,0
2019-01-15T01:54:43.386Z,0
2019-01-15T01:55:24.380Z,0
2019-01-15T01:56:04.914Z,0
2019-01-15T01:56:45.460Z,0
2019-01-15T01:57:25.977Z,0
2019-01-15T01:58:06.503Z,0
2019-01-15T01:58:47.034Z,0
2019-01-15T01:59:27.565Z,0
2019-01-15T02:00:08.082Z,0
2019-01-15T02:00:48.596Z,0
2019-01-15T02:01:29.145Z,0
2019-01-15T02:02:09.698Z,0
2019-01-15T02:02:50.217Z,0
2019-01-15T02:03:30.754Z,0
2019-01-15T02:04:11.278Z,0
2019-01-15T02:04:51.798Z,0
2019-01-15T02:05:32.321Z,0
2019-01-15T02:06:12.846Z,0
2019-01-15T02:06:53.365Z,0
2019-01-15T02:07:33.893Z,0
2019-01-15T02:08:14.412Z,0
2019-01-15T02:08:54.936Z,0
2019-01-15T02:09:35.456Z,0
2019-01-15T02:10:15.981Z,0
2019-01-15T02:10:56.505Z,0
2019-01-15T02:11:37.019Z,0
2019-01-15T02:12:17.536Z,0
2019-01-15T02:12:58.061Z,0
2019-01-15T02:13:38.582Z,0
2019-01-15T02:14:19.098Z,0
2019-01-15T02:14:59.621Z,0
2019-01-15T02:15:40.143Z,0
2019-01-15T02:16:20.665Z,0
2019-01-15T02:17:01.185Z,0
2019-01-15T02:17:41.712Z,0
2019-01-15T02:18:22.234Z,0
2019-01-15T02:19:02.759Z,0
2019-01-15T02:19:43.275Z,0
2019-01-15T02:20:23.796Z,0
2019-01-15T02:21:04.308Z,0
2019-01-15T02:21:44.833Z,0
2019-01-15T02:22:25.358Z,0
2019-01-15T02:23:05.883Z,0
2019-01-15T02:23:46.404Z,0
2019-01-15T02:24:26.925Z,0
2019-01-15T02:25:07.452Z,0
2019-01-15T02:25:47.975Z,0
2019-01-15T02:26:28.499Z,0
2019-01-15T02:27:09.017Z,0
2019-01-15T02:27:49.539Z,0
2019-01-15T02:28:30.064Z,0
2019-01-15T02:29:10.579Z,0
2019-01-15T02:29:51.099Z,0
2019-01-15T02:30:31.618Z,0
2019-01-15T02:31:12.140Z,0
2019-01-15T02:31:52.659Z,0
2019-01-15T02:32:33.182Z,0
2019-01-15T02:33:13.702Z,0
2019-01-15T02:33:54.218Z,0
2019-01-15T02:34:34.739Z,0
2019-01-15T02:35:15.257Z,0
2019-01-15T02:35:55.777Z,0
2019-01-15T02:36:36.291Z,0
2019-01-15T02:37:16.800Z,0
2019-01-15T02:37:57.312Z,0
2019-01-15T02:38:37.832Z,0
2019-01-15T02:39:18.351Z,0
2019-01-15T02:39:58.882Z,0
2019-01-15T02:40:39.398Z,0
2019-01-15T02:41:19.920Z,0
2019-01-15T02:42:00.438Z,0
2019-01-15T02:42:46.340Z,0
2019-01-15T02:43:21.476Z,0
2019-01-15T02:44:02.000Z,0
2019-01-15T02:44:42.516Z,0
2019-01-15T02:45:23.042Z,0
2019-01-15T02:46:03.549Z,0
2019-01-15T02:46:44.064Z,0
2019-01-15T02:47:24.584Z,0
2019-01-15T02:48:05.107Z,0
2019-01-15T02:48:45.632Z,0
2019-01-15T02:49:26.161Z,0
2019-01-15T02:50:06.674Z,0
2019-01-15T02:50:47.199Z,0
2019-01-15T02:51:27.720Z,0
2019-01-15T02:52:08.246Z,0
2019-01-15T02:52:48.766Z,0
2019-01-15T02:53:29.285Z,0
2019-01-15T02:54:09.807Z,0
2019-01-15T02:54:50.330Z,0
2019-01-15T02:55:30.852Z,0
2019-01-15T02:56:11.378Z,0
2019-01-15T02:56:51.895Z,0
2019-01-15T02:57:32.423Z,0
2019-01-15T02:58:12.948Z,0
2019-01-15T02:58:53.466Z,0
2019-01-15T02:59:33.985Z,0
2019-01-15T03:00:14.507Z,0
2019-01-15T03:00:55.023Z,0
2019-01-15T03:01:35.537Z,0
2019-01-15T03:02:16.060Z,0
2019-01-15T03:02:56.582Z,0
2019-01-15T03:03:37.104Z,0
2019-01-15T03:04:17.615Z,0
2019-01-15T03:04:58.144Z,0
2019-01-15T03:05:38.666Z,0
2019-01-15T03:06:19.194Z,0
2019-01-15T03:06:59.717Z,0
2019-01-15T03:07:40.245Z,0
2019-01-15T03:08:20.744Z,0
2019-01-15T03:09:01.260Z,0
2019-01-15T03:09:41.780Z,0
2019-01-15T03:10:22.304Z,0
2019-01-15T03:11:02.829Z,0
2019-01-15T03:11:43.346Z,0
2019-01-15T03:12:23.863Z,0
2019-01-15T03:13:04.381Z,0
2019-01-15T03:13:44.902Z,0
2019-01-15T03:14:25.423Z,0
2019-01-15T03:15:05.951Z,0
2019-01-15T03:15:46.484Z,0
2019-01-15T03:16:27.001Z,0
2019-01-15T03:17:07.527Z,0
2019-01-15T03:17:48.047Z,0
2019-01-15T03:18:28.567Z,0
2019-01-15T03:19:09.086Z,0
2019-01-15T03:19:49.605Z,0
2019-01-15T03:20:30.131Z,0
2019-01-15T03:21:10.653Z,0
2019-01-15T03:21:51.173Z,0
2019-01-15T03:22:31.692Z,0
2019-01-15T03:23:12.212Z,0
2019-01-15T03:23:52.740Z,0
2019-01-15T03:24:33.260Z,0
2019-01-15T03:25:13.790Z,0
2019-01-15T03:25:54.313Z,0
2019-01-15T03:26:34.840Z,0
2019-01-15T03:27:15.370Z,0
2019-01-15T03:27:55.900Z,0
2019-01-15T03:28:36.414Z,0
2019-01-15T03:29:16.938Z,0
2019-01-15T03:29:57.563Z,0
2019-01-15T03:30:38.082Z,0
2019-01-15T03:31:18.614Z,0
2019-01-15T03:31:59.131Z,0
2019-01-15T03:32:39.658Z,0
2019-01-15T03:35:53.497Z,0
2019-01-15T03:36:34.016Z,0
2019-01-15T03:37:14.546Z,0
2019-01-15T03:37:55.066Z,0
2019-01-15T03:38:35.580Z,0
2019-01-15T03:39:16.094Z,0
2019-01-15T03:39:56.620Z,0
2019-01-15T03:40:37.138Z,0
2019-01-15T03:41:17.655Z,0
2019-01-15T03:41:58.190Z,0
2019-01-15T03:42:38.732Z,0
2019-01-15T03:43:19.238Z,0
2019-01-15T03:43:59.757Z,0
2019-01-15T03:44:40.277Z,0
2019-01-15T03:45:20.803Z,0
2019-01-15T03:46:05.997Z,0
2019-01-15T03:46:46.524Z,0
2019-01-15T03:47:27.038Z,0
2019-01-15T03:48:07.557Z,0
2019-01-15T03:48:48.084Z,0
2019-01-15T03:49:28.607Z,0
2019-01-15T03:50:09.130Z,0
2019-01-15T03:50:49.647Z,0
2019-01-15T03:51:30.508Z,0
2019-01-15T03:52:10.691Z,0
2019-01-15T03:52:51.210Z,0
2019-01-15T03:53:31.729Z,0
2019-01-15T03:54:12.252Z,0
2019-01-15T03:54:52.770Z,0
2019-01-15T03:55:33.305Z,0
2019-01-15T03:56:13.827Z,0
2019-01-15T03:56:54.362Z,0
2019-01-15T03:57:34.875Z,0
2019-01-15T03:58:15.397Z,0
2019-01-15T03:58:55.919Z,0
2019-01-15T03:59:36.446Z,0
2019-01-15T04:00:16.994Z,0
2019-01-15T04:00:57.556Z,0
2019-01-15T04:01:38.046Z,0
2019-01-15T04:02:18.579Z,0
2019-01-15T04:02:59.098Z,0
2019-01-15T04:03:39.633Z,0
2019-01-15T04:04:20.180Z,0
2019-01-15T04:05:00.753Z,0
2019-01-15T04:05:41.252Z,0
2019-01-15T04:06:21.782Z,0
2019-01-15T04:07:02.304Z,0
2019-01-15T04:07:42.837Z,0
2019-01-15T04:08:23.372Z,0
2019-01-15T04:09:03.900Z,0
2019-01-15T04:09:44.451Z,0
2019-01-15T04:10:24.970Z,0
2019-01-15T04:11:05.501Z,0
2019-01-15T04:11:46.038Z,0
2019-01-15T04:12:26.576Z,0
2019-01-15T04:13:11.307Z,0
2019-01-15T04:13:47.645Z,0
2019-01-15T04:14:28.182Z,0
2019-01-15T04:15:08.712Z,0
2019-01-15T04:15:49.235Z,0
2019-01-15T04:16:29.762Z,0
2019-01-15T04:17:10.302Z,0
2019-01-15T04:17:50.831Z,0
2019-01-15T04:18:31.367Z,0
2019-01-15T04:19:11.896Z,0
2019-01-15T04:19:52.432Z,0
2019-01-15T04:20:32.973Z,0
2019-01-15T04:21:13.514Z,0
2019-01-15T04:21:54.048Z,0
2019-01-15T04:22:34.589Z,0
2019-01-15T04:23:15.114Z,0
2019-01-15T04:23:55.652Z,0
2019-01-15T04:24:36.248Z,0
2019-01-15T04:25:16.725Z,0
2019-01-15T04:25:57.236Z,0
2019-01-15T04:26:37.777Z,0
2019-01-15T04:27:18.305Z,0
2019-01-15T04:27:58.834Z,0
2019-01-15T04:28:39.362Z,0
2019-01-15T04:29:19.888Z,0
2019-01-15T04:30:00.424Z,0
2019-01-15T04:30:40.956Z,0
2019-01-15T04:31:21.483Z,0
2019-01-15T04:32:02.013Z,0
2019-01-15T04:32:42.547Z,0
2019-01-15T04:33:23.075Z,0
2019-01-15T04:34:03.615Z,0
2019-01-15T04:34:44.162Z,0
2019-01-15T04:35:24.709Z,0
2019-01-15T04:36:05.213Z,0
2019-01-15T04:36:45.750Z,0
2019-01-15T04:37:26.278Z,0
2019-01-15T04:38:06.804Z,0
2019-01-15T04:38:47.343Z,0
2019-01-15T04:39:27.878Z,0
2019-01-15T04:40:08.407Z,0
2019-01-15T04:40:48.949Z,0
2019-01-15T04:41:29.504Z,0
2019-01-15T04:42:10.028Z,0
2019-01-15T04:42:50.553Z,0
2019-01-15T04:43:31.091Z,0
2019-01-15T04:44:13.299Z,0
2019-01-15T04:44:56.294Z,0
2019-01-15T04:45:36.819Z,0
2019-01-15T04:46:17.346Z,0
2019-01-15T04:46:57.874Z,0
2019-01-15T04:47:38.409Z,0
2019-01-15T04:48:18.963Z,0
2019-01-15T04:48:59.489Z,0
2019-01-15T04:49:40.018Z,0
2019-01-15T04:50:20.549Z,0
2019-01-15T04:51:01.066Z,0
2019-01-15T04:51:41.591Z,0
2019-01-15T04:52:22.117Z,0
2019-01-15T04:53:02.642Z,0
2019-01-15T04:53:43.174Z,0
2019-01-15T04:54:23.706Z,0
2019-01-15T04:55:04.584Z,0
2019-01-15T04:55:45.104Z,0
2019-01-15T04:56:25.641Z,0
2019-01-15T04:57:06.181Z,0
2019-01-15T04:57:46.709Z,0
2019-01-15T04:58:27.252Z,0
2019-01-15T04:59:07.796Z,0
2019-01-15T04:59:48.407Z,0
2019-01-15T05:00:28.862Z,0
2019-01-15T05:01:09.403Z,0
2019-01-15T05:01:49.938Z,0
2019-01-15T05:02:30.468Z,0
2019-01-15T05:03:11.009Z,0
2019-01-15T05:03:51.543Z,0
2019-01-15T05:04:32.080Z,0
2019-01-15T05:05:12.619Z,0
2019-01-15T05:05:53.141Z,0
2019-01-15T05:06:33.670Z,0
2019-01-15T05:07:14.195Z,0
2019-01-15T05:07:54.720Z,0
2019-01-15T05:08:35.264Z,0
2019-01-15T05:09:15.792Z,0
2019-01-15T05:09:56.316Z,0
2019-01-15T05:10:39.290Z,0
2019-01-15T05:11:21.290Z,0
2019-01-15T05:12:06.290Z,0
2019-01-15T05:12:48.380Z,0
2019-01-15T05:13:32.293Z,0
2019-01-15T05:14:16.291Z,0
2019-01-15T05:15:00.378Z,0
2019-01-15T05:15:40.918Z,0
2019-01-15T05:16:21.448Z,0
2019-01-15T05:17:01.973Z,0
2019-01-15T05:17:42.486Z,0
2019-01-15T05:18:23.035Z,0
2019-01-15T05:19:03.569Z,0
2019-01-15T05:19:44.124Z,0
2019-01-15T05:20:24.650Z,0
2019-01-15T05:21:05.194Z,0
2019-01-15T05:21:45.721Z,0
2019-01-15T05:22:26.249Z,0
2019-01-15T05:23:06.790Z,0
2019-01-15T05:23:47.335Z,0
2019-01-15T05:24:27.856Z,0
2019-01-15T05:25:08.391Z,0
2019-01-15T05:25:48.930Z,0
2019-01-15T05:26:29.459Z,0
2019-01-15T05:27:09.988Z,0
2019-01-15T05:27:50.516Z,0
2019-01-15T05:28:31.049Z,0
2019-01-15T05:29:11.584Z,0
2019-01-15T05:29:52.113Z,0
2019-01-15T05:30:32.640Z,0
2019-01-15T05:31:13.159Z,0
2019-01-15T05:31:53.692Z,0
2019-01-15T05:32:34.218Z,0
2019-01-15T05:33:14.757Z,0
2019-01-15T05:33:55.286Z,0
2019-01-15T05:34:35.823Z,0
2019-01-15T05:35:16.355Z,0
2019-01-15T05:35:56.895Z,0
2019-01-15T05:36:37.426Z,0
2019-01-15T05:37:17.958Z,0
2019-01-15T05:37:58.498Z,0
2019-01-15T05:38:39.029Z,0
2019-01-15T05:39:19.553Z,0
2019-01-15T05:40:00.337Z,0
2019-01-15T05:40:40.623Z,0
2019-01-15T05:41:21.142Z,0
2019-01-15T05:42:01.672Z,0
2019-01-15T05:42:42.198Z,0
2019-01-15T05:43:22.721Z,0
2019-01-15T05:44:03.253Z,0
2019-01-15T05:44:43.779Z,0
2019-01-15T05:45:24.314Z,0
2019-01-15T05:46:04.835Z,0
2019-01-15T05:46:45.370Z,0
2019-01-15T05:47:25.895Z,0
2019-01-15T05:48:06.431Z,0
2019-01-15T05:48:53.612Z,0
2019-01-15T05:49:34.147Z,0
2019-01-15T05:50:14.682Z,0
2019-01-15T05:50:55.216Z,0
2019-01-15T05:51:35.743Z,0
2019-01-15T05:52:16.270Z,0
2019-01-15T05:52:56.796Z,0
2019-01-15T05:53:37.319Z,0
2019-01-15T05:54:17.848Z,0
2019-01-15T05:54:58.369Z,0
2019-01-15T05:55:38.896Z,0
2019-01-15T05:56:19.432Z,0
2019-01-15T05:56:59.959Z,0
2019-01-15T05:57:40.475Z,0
2019-01-15T05:58:21.000Z,0
2019-01-15T05:59:16.118Z,0
2019-01-15T06:02:35.059Z,0
2019-01-15T06:03:15.597Z,0
2019-01-15T06:03:56.116Z,0
2019-01-15T06:04:36.638Z,0
2019-01-15T06:05:17.150Z,0
2019-01-15T06:05:57.682Z,0
2019-01-15T06:06:38.203Z,0
2019-01-15T06:07:18.728Z,0
2019-01-15T06:07:59.253Z,0
2019-01-15T06:08:39.800Z,0
2019-01-15T06:09:20.334Z,0
2019-01-15T06:10:00.855Z,0
2019-01-15T06:10:41.392Z,0
2019-01-15T06:11:21.927Z,0
2019-01-15T06:12:02.453Z,0
2019-01-15T06:12:42.979Z,0
2019-01-15T06:13:23.507Z,0
2019-01-15T06:14:04.036Z,0
2019-01-15T06:14:44.575Z,0
2019-01-15T06:15:25.106Z,0
2019-01-15T06:16:05.652Z,0
2019-01-15T06:16:46.186Z,0
2019-01-15T06:17:26.714Z,0
2019-01-15T06:18:07.250Z,0
2019-01-15T06:18:47.783Z,0
2019-01-15T06:19:28.318Z,0
2019-01-15T06:20:08.847Z,0
2019-01-15T06:20:49.373Z,0
2019-01-15T06:21:29.902Z,0
2019-01-15T06:22:10.435Z,0
2019-01-15T06:22:50.968Z,0
2019-01-15T06:23:31.483Z,0
2019-01-15T06:24:12.027Z,0
2019-01-15T06:24:52.572Z,0
2019-01-15T06:25:33.103Z,0
2019-01-15T06:26:13.634Z,0
2019-01-15T06:26:54.177Z,0
2019-01-15T06:27:34.703Z,0
2019-01-15T06:28:15.235Z,0
2019-01-15T06:28:55.783Z,0
2019-01-15T06:29:36.309Z,0
2019-01-15T06:30:16.829Z,0
2019-01-15T06:30:57.357Z,0
2019-01-15T06:31:37.885Z,0
2019-01-15T06:32:18.424Z,0
2019-01-15T06:32:58.942Z,0
2019-01-15T06:33:39.472Z,0
2019-01-15T06:34:19.997Z,0
2019-01-15T06:35:00.523Z,0
2019-01-15T06:35:41.064Z,0
2019-01-15T06:36:21.609Z,0
2019-01-15T06:37:02.120Z,0
2019-01-15T06:37:42.651Z,0
2019-01-15T06:38:23.183Z,0
2019-01-15T06:39:03.713Z,0
2019-01-15T06:39:44.229Z,0
2019-01-15T06:40:24.760Z,0
2019-01-15T06:41:05.297Z,0
2019-01-15T06:41:45.854Z,0
2019-01-15T06:42:26.380Z,0
2019-01-15T06:43:06.908Z,0
2019-01-15T06:43:50.044Z,0
2019-01-15T06:44:27.974Z,0
2019-01-15T06:45:08.493Z,0
2019-01-15T06:45:49.035Z,0
2019-01-15T06:46:29.563Z,0
2019-01-15T06:47:10.087Z,0
2019-01-15T06:47:50.611Z,0
2019-01-15T06:48:31.151Z,0
2019-01-15T06:49:11.692Z,0
2019-01-15T06:49:52.222Z,0
2019-01-15T06:50:32.759Z,0
2019-01-15T06:51:13.286Z,0
2019-01-15T06:51:53.817Z,0
2019-01-15T06:52:34.353Z,0
2019-01-15T06:53:14.899Z,0
2019-01-15T06:53:55.434Z,0
2019-01-15T06:54:35.954Z,0
2019-01-15T06:55:16.489Z,0
2019-01-15T06:55:57.011Z,0
2019-01-15T06:56:37.542Z,0
2019-01-15T06:57:18.067Z,0
2019-01-15T06:57:58.606Z,0
2019-01-15T06:58:39.138Z,0
2019-01-15T06:59:19.663Z,0
2019-01-15T07:00:00.267Z,0
2019-01-15T07:00:40.722Z,5
2019-01-15T07:01:21.240Z,5
2019-01-15T07:02:01.783Z,5
2019-01-15T07:02:42.303Z,5
2019-01-15T07:03:22.836Z,5
2019-01-15T07:04:03.373Z,5
2019-01-15T07:04:44.108Z,5
2019-01-15T07:05:24.437Z,5
2019-01-15T07:06:04.958Z,5
2019-01-15T07:06:45.494Z,5
2019-01-15T07:07:26.016Z,5
2019-01-15T07:08:06.546Z,5
2019-01-15T07:08:47.083Z,5
2019-01-15T07:09:27.621Z,5
2019-01-15T07:10:08.142Z,10
2019-01-15T07:10:48.662Z,10
2019-01-15T07:11:29.199Z,10
2019-01-15T07:12:09.741Z,10
2019-01-15T07:12:50.279Z,10
2019-01-15T07:13:30.801Z,10
2019-01-15T07:14:11.324Z,10
2019-01-15T07:14:51.849Z,10
2019-01-15T07:15:32.379Z,10
2019-01-15T07:16:12.909Z,10
2019-01-15T07:16:53.437Z,10
2019-01-15T07:17:33.965Z,10
2019-01-15T07:18:14.505Z,10
2019-01-15T07:18:55.041Z,10
2019-01-15T07:19:35.577Z,15
2019-01-15T07:20:16.108Z,15
2019-01-15T07:20:57.414Z,15
2019-01-15T07:21:37.170Z,15
2019-01-15T07:22:17.705Z,15
2019-01-15T07:22:58.227Z,15
2019-01-15T07:26:32.449Z,20
2019-01-15T07:27:12.960Z,20
2019-01-15T07:27:53.515Z,20
2019-01-15T07:28:34.052Z,20
2019-01-15T07:29:14.591Z,25
2019-01-15T07:29:55.116Z,25
2019-01-15T07:30:35.651Z,25
2019-01-15T07:31:16.172Z,25
2019-01-15T07:31:56.700Z,25
2019-01-15T07:32:37.249Z,25
2019-01-15T07:33:17.777Z,25
2019-01-15T07:33:58.310Z,25
2019-01-15T07:34:38.848Z,30
2019-01-15T07:35:19.371Z,30
2019-01-15T07:35:59.898Z,30
2019-01-15T07:36:40.431Z,30
2019-01-15T07:37:20.947Z,30
2019-01-15T07:38:01.489Z,30
2019-01-15T07:38:42.014Z,30
2019-01-15T07:39:22.548Z,30
2019-01-15T07:40:03.079Z,30
2019-01-15T07:40:43.609Z,30
2019-01-15T07:41:24.140Z,35
2019-01-15T07:42:04.669Z,35
2019-01-15T07:42:45.207Z,35
2019-01-15T07:43:25.726Z,35
2019-01-15T07:44:06.262Z,35
2019-01-15T07:44:46.803Z,35
2019-01-15T07:45:27.326Z,40
2019-01-15T07:46:07.850Z,40
2019-01-15T07:46:48.379Z,40
2019-01-15T07:47:28.927Z,40
2019-01-15T07:48:09.466Z,45
2019-01-15T07:48:49.996Z,45
2019-01-15T07:49:30.529Z,45
2019-01-15T07:50:11.064Z,50
2019-01-15T07:50:51.595Z,50
2019-01-15T07:51:32.128Z,50
2019-01-15T07:52:12.659Z,50
2019-01-15T07:52:53.204Z,50
2019-01-15T07:53:33.732Z,55
2019-01-15T07:54:14.253Z,55
2019-01-15T07:54:54.796Z,55
2019-01-15T07:55:35.334Z,55
2019-01-15T07:56:15.857Z,55
2019-01-15T07:56:56.385Z,60
2019-01-15T07:57:36.914Z,60
2019-01-15T07:58:17.447Z,60
2019-01-15T07:58:57.979Z,60
2019-01-15T07:59:38.507Z,60
2019-01-15T08:00:19.037Z,60
2019-01-15T08:00:59.568Z,60
2019-01-15T08:01:40.085Z,60
2019-01-15T08:02:20.633Z,60
2019-01-15T08:03:01.154Z,65
2019-01-15T08:03:41.695Z,65
2019-01-15T08:04:22.230Z,65
2019-01-15T08:05:02.768Z,65
2019-01-15T08:05:43.302Z,65
2019-01-15T08:06:23.843Z,65
2019-01-15T08:07:04.377Z,65
2019-01-15T08:07:44.900Z,70
2019-01-15T08:08:25.429Z,70
2019-01-15T08:09:05.971Z,70
2019-01-15T08:09:46.502Z,70
2019-01-15T08:10:27.041Z,70
2019-01-15T08:11:07.570Z,70
2019-01-15T08:11:48.096Z,70
2019-01-15T08:12:28.625Z,75
2019-01-15T08:13:09.166Z,75
2019-01-15T08:13:49.695Z,75
2019-01-15T08:14:30.223Z,80
2019-01-15T08:15:10.757Z,80
2019-01-15T08:15:51.288Z,80
2019-01-15T08:16:31.817Z,85
2019-01-15T08:17:12.353Z,85
2019-01-15T08:17:52.885Z,80
2019-01-15T08:18:33.418Z,80
2019-01-15T08:19:13.965Z,80
2019-01-15T08:19:54.506Z,80
2019-01-15T08:20:35.028Z,80
2019-01-15T08:21:15.562Z,85
2019-01-15T08:21:56.086Z,85
2019-01-15T08:22:36.610Z,85
2019-01-15T08:25:50.478Z,95
2019-01-15T08:26:31.005Z,95
2019-01-15T08:27:11.540Z,95
2019-01-15T08:27:52.078Z,95
2019-01-15T08:28:32.600Z,100
2019-01-15T08:29:13.135Z,95
2019-01-15T08:29:53.662Z,95
2019-01-15T08:30:34.186Z,95
2019-01-15T08:31:14.727Z,95
2019-01-15T08:31:55.249Z,95
2019-01-15T08:35:29.443Z,90
2019-01-15T08:36:09.970Z,90
2019-01-15T08:36:50.505Z,90
2019-01-15T08:37:31.035Z,90
2019-01-15T08:38:11.563Z,90
2019-01-15T08:38:52.087Z,95
2019-01-15T08:39:32.615Z,95
2019-01-15T08:40:13.152Z,105
2019-01-15T08:40:53.693Z,100
2019-01-15T08:41:34.226Z,100
2019-01-15T08:42:14.746Z,100
2019-01-15T08:42:55.280Z,105
2019-01-15T08:43:35.812Z,105
2019-01-15T08:44:19.231Z,105
2019-01-15T08:44:56.873Z,110
2019-01-15T08:45:37.413Z,110
2019-01-15T08:46:17.943Z,110
2019-01-15T08:46:58.469Z,110
2019-01-15T08:47:39.002Z,115
2019-01-15T08:48:19.518Z,115
2019-01-15T08:49:00.050Z,110
2019-01-15T08:49:40.599Z,115
2019-01-15T08:50:21.133Z,115
2019-01-15T08:51:01.654Z,120
2019-01-15T08:51:42.184Z,115
2019-01-15T08:52:22.726Z,120
2019-01-15T08:53:03.270Z,120
2019-01-15T08:53:43.807Z,125
2019-01-15T08:54:24.334Z,125
2019-01-15T08:55:04.854Z,125
2019-01-15T08:55:45.385Z,125
2019-01-15T08:56:25.920Z,125
2019-01-15T08:57:06.442Z,125
2019-01-15T08:57:46.982Z,130
2019-01-15T08:58:27.518Z,130
2019-01-15T08:59:08.046Z,135
2019-01-15T08:59:48.570Z,140
2019-01-15T09:00:29.110Z,145
2019-01-15T09:01:09.645Z,145
2019-01-15T09:01:50.176Z,145
2019-01-15T09:02:30.717Z,145
2019-01-15T09:03:11.247Z,140
2019-01-15T09:03:51.793Z,140
2019-01-15T09:04:32.327Z,150
2019-01-15T09:05:12.859Z,150
2019-01-15T09:05:53.388Z,150
2019-01-15T09:06:33.909Z,150
2019-01-15T09:07:14.463Z,155
2019-01-15T09:07:54.995Z,160
2019-01-15T09:08:35.527Z,160
2019-01-15T09:09:16.069Z,160
2019-01-15T09:12:45.197Z,150
2019-01-15T09:13:25.723Z,150
2019-01-15T09:14:06.257Z,145
2019-01-15T09:14:46.782Z,145
2019-01-15T09:15:27.325Z,145
2019-01-15T09:16:07.852Z,145
2019-01-15T09:16:48.373Z,145
2019-01-15T09:17:28.917Z,150
2019-01-15T09:18:09.461Z,165
2019-01-15T09:18:49.983Z,165
2019-01-15T09:19:30.523Z,165
2019-01-15T09:20:11.057Z,165
2019-01-15T09:20:51.597Z,165
2019-01-15T09:21:32.131Z,160
2019-01-15T09:22:12.660Z,160
2019-01-15T09:22:53.188Z,160
2019-01-15T09:23:33.726Z,165
2019-01-15T09:24:14.256Z,175
2019-01-15T09:24:54.783Z,175
2019-01-15T09:25:35.309Z,180
2019-01-15T09:26:15.833Z,185
2019-01-15T09:26:56.361Z,185
2019-01-15T09:27:36.900Z,190
2019-01-15T09:28:17.438Z,195
2019-01-15T09:28:57.985Z,205
2019-01-15T09:29:38.515Z,200
2019-01-15T09:30:19.060Z,195
2019-01-15T09:30:59.592Z,190
2019-01-15T09:31:40.128Z,180
2019-01-15T09:32:20.669Z,175
2019-01-15T09:33:01.199Z,175
2019-01-15T09:33:41.734Z,180
2019-01-15T09:34:22.278Z,190
2019-01-15T09:35:02.806Z,190
2019-01-15T09:35:43.335Z,190
2019-01-15T09:36:23.868Z,195
2019-01-15T09:37:04.811Z,205
2019-01-15T09:37:44.905Z,210
2019-01-15T09:38:25.446Z,215
2019-01-15T09:39:05.981Z,225
2019-01-15T09:39:46.507Z,220
2019-01-15T09:40:27.033Z,230
2019-01-15T09:41:07.574Z,235
2019-01-15T09:41:48.100Z,240
2019-01-15T09:42:28.630Z,240
2019-01-15T09:43:09.166Z,245
2019-01-15T09:43:49.704Z,245
2019-01-15T09:44:33.950Z,250
2019-01-15T09:45:10.777Z,255
2019-01-15T09:45:51.307Z,265
2019-01-15T09:46:31.836Z,260
2019-01-15T09:47:12.362Z,255
2019-01-15T09:47:52.890Z,250
2019-01-15T09:48:33.422Z,260
2019-01-15T09:49:13.951Z,260
2019-01-15T09:49:54.481Z,265
2019-01-15T09:50:35.016Z,260
2019-01-15T09:51:15.541Z,250
2019-01-15T09:51:56.068Z,245
2019-01-15T09:55:09.935Z,235
2019-01-15T09:55:50.472Z,240
2019-01-15T09:56:31.008Z,240
2019-01-15T09:57:11.532Z,245
2019-01-15T09:57:52.067Z,240
2019-01-15T09:58:32.609Z,240
2019-01-15T09:59:13.138Z,240
2019-01-15T09:59:53.670Z,235
2019-01-15T10:00:34.198Z,240
2019-01-15T10:01:14.733Z,245
2019-01-15T10:01:55.262Z,245
2019-01-15T10:02:35.804Z,250
2019-01-15T10:03:16.334Z,255
2019-01-15T10:03:56.867Z,265
2019-01-15T10:04:37.397Z,270
2019-01-15T10:05:17.924Z,275
2019-01-15T10:05:58.455Z,280
2019-01-15T10:06:38.980Z,280
2019-01-15T10:07:19.511Z,285
2019-01-15T10:08:00.029Z,290
2019-01-15T10:08:40.556Z,290
2019-01-15T10:09:21.083Z,295
2019-01-15T10:10:01.626Z,300
2019-01-15T10:10:42.168Z,300
2019-01-15T10:11:22.701Z,300
2019-01-15T10:12:03.235Z,310
2019-01-15T10:12:43.763Z,305